sensor_id;sensor_type;location;lat;lon;timestamp;pressure;altitude;pressure_sealevel;temperature;humidity
46291;BME280;32023;44.444;26.006;2023-02-17T00:03:48;101169.47;;;2.61;78.19
46291;BME280;32023;44.444;26.006;2023-02-17T00:06:15;101174.44;;;2.58;78.71
46291;BME280;32023;44.444;26.006;2023-02-17T00:08:44;101168.63;;;2.61;78.80
46291;BME280;32023;44.444;26.006;2023-02-17T00:11:10;101169.47;;;2.61;78.69
46291;BME280;32023;44.444;26.006;2023-02-17T00:13:37;101174.06;;;2.61;78.35
46291;BME280;32023;44.444;26.006;2023-02-17T00:18:41;101171.25;;;2.54;78.99
46291;BME280;32023;44.444;26.006;2023-02-17T00:21:11;101166.84;;;2.53;79.22
46291;BME280;32023;44.444;26.006;2023-02-17T00:23:38;101157.88;;;2.53;79.36
46291;BME280;32023;44.444;26.006;2023-02-17T00:26:05;101153.06;;;2.55;79.29
46291;BME280;32023;44.444;26.006;2023-02-17T00:28:49;101154.56;;;2.57;79.05
46291;BME280;32023;44.444;26.006;2023-02-17T00:31:16;101149.13;;;2.57;78.96
46291;BME280;32023;44.444;26.006;2023-02-17T00:33:43;101148.88;;;2.52;79.24
46291;BME280;32023;44.444;26.006;2023-02-17T00:36:11;101148.19;;;2.50;79.33
46291;BME280;32023;44.444;26.006;2023-02-17T00:41:32;101132.38;;;2.39;79.34
46291;BME280;32023;44.444;26.006;2023-02-17T00:44:00;101129.84;;;2.37;79.69
46291;BME280;32023;44.444;26.006;2023-02-17T00:46:26;101124.13;;;2.32;80.11
46291;BME280;32023;44.444;26.006;2023-02-17T00:48:52;101128.72;;;2.32;80.76
46291;BME280;32023;44.444;26.006;2023-02-17T00:51:19;101123.97;;;2.34;80.75
46291;BME280;32023;44.444;26.006;2023-02-17T00:53:47;101121.03;;;2.35;80.54
46291;BME280;32023;44.444;26.006;2023-02-17T00:56:14;101075.97;;;2.12;80.52
46291;BME280;32023;44.444;26.006;2023-02-17T00:58:40;101106.97;;;2.32;80.13
46291;BME280;32023;44.444;26.006;2023-02-17T01:01:15;101103.78;;;2.28;80.16
46291;BME280;32023;44.444;26.006;2023-02-17T01:04:01;101096.03;;;2.25;80.48
46291;BME280;32023;44.444;26.006;2023-02-17T01:06:31;101101.63;;;2.24;81.26
46291;BME280;32023;44.444;26.006;2023-02-17T01:08:58;101082.91;;;2.29;81.66
46291;BME280;32023;44.444;26.006;2023-02-17T01:11:25;101081.69;;;2.31;81.33
46291;BME280;32023;44.444;26.006;2023-02-17T01:13:52;101070.63;;;2.33;80.89
46291;BME280;32023;44.444;26.006;2023-02-17T01:16:23;101078.41;;;2.36;80.75
46291;BME280;32023;44.444;26.006;2023-02-17T01:18:49;101074.44;;;2.38;80.86
46291;BME280;32023;44.444;26.006;2023-02-17T01:21:16;101069.22;;;2.37;80.99
46291;BME280;32023;44.444;26.006;2023-02-17T01:23:43;101074.44;;;2.38;80.92
46291;BME280;32023;44.444;26.006;2023-02-17T01:26:13;101065.66;;;2.36;80.77
46291;BME280;32023;44.444;26.006;2023-02-17T01:28:39;101064.44;;;2.39;80.71
46291;BME280;32023;44.444;26.006;2023-02-17T01:31:06;101073.25;;;2.41;80.79
46291;BME280;32023;44.444;26.006;2023-02-17T01:33:33;101059.66;;;2.41;80.89
46291;BME280;32023;44.444;26.006;2023-02-17T01:36:01;101067.16;;;2.39;80.80
46291;BME280;32023;44.444;26.006;2023-02-17T01:38:27;101072.56;;;2.39;80.64
46291;BME280;32023;44.444;26.006;2023-02-17T01:40:53;101069.59;;;2.34;80.53
46291;BME280;32023;44.444;26.006;2023-02-17T01:43:20;101068.66;;;2.27;80.50
46291;BME280;32023;44.444;26.006;2023-02-17T01:45:54;101063.59;;;2.24;80.75
46291;BME280;32023;44.444;26.006;2023-02-17T01:48:21;101067.25;;;2.16;81.01
46291;BME280;32023;44.444;26.006;2023-02-17T01:50:54;101061.34;;;2.13;81.04
46291;BME280;32023;44.444;26.006;2023-02-17T01:56:01;101053.31;;;2.05;81.12
46291;BME280;32023;44.444;26.006;2023-02-17T01:58:28;101055.38;;;2.03;81.30
46291;BME280;32023;44.444;26.006;2023-02-17T02:00:59;101054.34;;;2.04;81.09
46291;BME280;32023;44.444;26.006;2023-02-17T02:03:26;101045.53;;;2.02;81.38
46291;BME280;32023;44.444;26.006;2023-02-17T02:05:54;101057.81;;;1.98;81.07
46291;BME280;32023;44.444;26.006;2023-02-17T02:08:20;101039.16;;;1.94;80.97
46291;BME280;32023;44.444;26.006;2023-02-17T02:10:46;101025.97;;;1.91;81.01
46291;BME280;32023;44.444;26.006;2023-02-17T02:13:12;101027.00;;;1.90;80.85
46291;BME280;32023;44.444;26.006;2023-02-17T02:15:51;101022.78;;;1.88;81.17
46291;BME280;32023;44.444;26.006;2023-02-17T02:18:36;101022.97;;;1.86;80.94
46291;BME280;32023;44.444;26.006;2023-02-17T02:33:49;101008.66;;;1.92;81.22
46291;BME280;32023;44.444;26.006;2023-02-17T02:36:26;101011.84;;;1.96;81.22
46291;BME280;32023;44.444;26.006;2023-02-17T02:38:58;101017.34;;;2.03;81.10
46291;BME280;32023;44.444;26.006;2023-02-17T02:41:28;101014.91;;;2.08;80.92
46291;BME280;32023;44.444;26.006;2023-02-17T02:43:56;101012.47;;;2.13;80.79
46291;BME280;32023;44.444;26.006;2023-02-17T02:46:33;101011.25;;;2.15;80.38
46291;BME280;32023;44.444;26.006;2023-02-17T02:49:01;101017.72;;;2.14;80.22
46291;BME280;32023;44.444;26.006;2023-02-17T02:51:34;101017.50;;;2.16;80.03
46291;BME280;32023;44.444;26.006;2023-02-17T02:54:26;101022.94;;;2.16;79.67
46291;BME280;32023;44.444;26.006;2023-02-17T02:57:00;101023.78;;;2.16;79.52
46291;BME280;32023;44.444;26.006;2023-02-17T02:59:43;101030.47;;;2.14;79.38
46291;BME280;32023;44.444;26.006;2023-02-17T03:07:44;101030.47;;;2.14;78.96
46291;BME280;32023;44.444;26.006;2023-02-17T03:13:01;101035.88;;;2.14;78.93
46291;BME280;32023;44.444;26.006;2023-02-17T03:15:29;101030.06;;;2.17;78.93
46291;BME280;32023;44.444;26.006;2023-02-17T03:17:56;101019.31;;;2.09;79.01
46291;BME280;32023;44.444;26.006;2023-02-17T03:20:23;101026.53;;;2.02;79.52
46291;BME280;32023;44.444;26.006;2023-02-17T03:22:50;101021.19;;;1.93;80.29
46291;BME280;32023;44.444;26.006;2023-02-17T03:25:16;101016.59;;;1.79;81.28
46291;BME280;32023;44.444;26.006;2023-02-17T03:27:42;101016.59;;;1.79;81.88
46291;BME280;32023;44.444;26.006;2023-02-17T03:30:15;101013.81;;;1.73;82.16
46291;BME280;32023;44.444;26.006;2023-02-17T03:32:41;101008.84;;;1.62;82.82
46291;BME280;32023;44.444;26.006;2023-02-17T03:35:07;100998.97;;;1.46;83.21
46291;BME280;32023;44.444;26.006;2023-02-17T03:37:36;100992.41;;;1.40;83.80
46291;BME280;32023;44.444;26.006;2023-02-17T03:40:03;100988.28;;;1.30;84.35
46291;BME280;32023;44.444;26.006;2023-02-17T03:42:29;100986.50;;;1.22;84.50
46291;BME280;32023;44.444;26.006;2023-02-17T03:44:58;100987.03;;;1.18;85.13
46291;BME280;32023;44.444;26.006;2023-02-17T03:47:25;100994.16;;;1.19;85.27
46291;BME280;32023;44.444;26.006;2023-02-17T03:49:51;100985.66;;;1.22;85.23
46291;BME280;32023;44.444;26.006;2023-02-17T03:52:17;100993.50;;;1.17;85.15
46291;BME280;32023;44.444;26.006;2023-02-17T03:54:44;101003.38;;;1.10;85.53
46291;BME280;32023;44.444;26.006;2023-02-17T03:57:10;101001.59;;;1.02;85.87
46291;BME280;32023;44.444;26.006;2023-02-17T03:59:36;100996.16;;;1.02;86.43
46291;BME280;32023;44.444;26.006;2023-02-17T04:02:02;100994.88;;;0.98;86.24
46291;BME280;32023;44.444;26.006;2023-02-17T04:04:40;100998.13;;;0.93;86.71
46291;BME280;32023;44.444;26.006;2023-02-17T04:09:37;100991.00;;;0.92;87.28
46291;BME280;32023;44.444;26.006;2023-02-17T04:12:03;100986.78;;;0.90;87.65
46291;BME280;32023;44.444;26.006;2023-02-17T04:14:29;100982.88;;;0.92;87.91
46291;BME280;32023;44.444;26.006;2023-02-17T04:16:56;100998.13;;;0.93;88.14
46291;BME280;32023;44.444;26.006;2023-02-17T04:19:25;100995.03;;;0.96;88.33
46291;BME280;32023;44.444;26.006;2023-02-17T04:21:52;100991.09;;;0.99;88.21
46291;BME280;32023;44.444;26.006;2023-02-17T04:24:19;100996.16;;;1.02;88.20
46291;BME280;32023;44.444;26.006;2023-02-17T04:26:48;100999.53;;;1.04;88.28
46291;BME280;32023;44.444;26.006;2023-02-17T04:29:31;101002.19;;;1.12;87.98
46291;BME280;32023;44.444;26.006;2023-02-17T04:31:57;101013.50;;;1.16;87.85
46291;BME280;32023;44.444;26.006;2023-02-17T04:34:30;101006.03;;;1.18;87.76
46291;BME280;32023;44.444;26.006;2023-02-17T04:39:43;101005.31;;;1.24;87.54
46291;BME280;32023;44.444;26.006;2023-02-17T04:42:09;101004.47;;;1.23;87.47
46291;BME280;32023;44.444;26.006;2023-02-17T04:44:35;101000.25;;;1.21;87.55
46291;BME280;32023;44.444;26.006;2023-02-17T04:47:01;101007.34;;;1.22;87.42
46291;BME280;32023;44.444;26.006;2023-02-17T04:49:27;101005.00;;;1.19;87.12
46291;BME280;32023;44.444;26.006;2023-02-17T04:51:54;101007.63;;;1.12;87.00
46291;BME280;32023;44.444;26.006;2023-02-17T04:54:20;100996.66;;;1.06;87.27
46291;BME280;32023;44.444;26.006;2023-02-17T04:56:47;100996.53;;;0.99;87.05
46291;BME280;32023;44.444;26.006;2023-02-17T04:59:13;101002.50;;;0.94;87.05
46291;BME280;32023;44.444;26.006;2023-02-17T05:01:47;101016.03;;;0.94;86.71
46291;BME280;32023;44.444;26.006;2023-02-17T05:04:16;100972.50;;;0.73;86.82
46291;BME280;32023;44.444;26.006;2023-02-17T05:06:45;101024.13;;;1.03;86.65
46291;BME280;32023;44.444;26.006;2023-02-17T05:09:11;101022.47;;;1.02;86.62
46291;BME280;32023;44.444;26.006;2023-02-17T05:14:40;101033.88;;;1.12;86.49
46291;BME280;32023;44.444;26.006;2023-02-17T05:17:06;101038.47;;;1.11;86.32
46291;BME280;32023;44.444;26.006;2023-02-17T05:19:35;101043.03;;;1.11;86.20
46291;BME280;32023;44.444;26.006;2023-02-17T05:22:11;101047.28;;;1.13;86.22
46291;BME280;32023;44.444;26.006;2023-02-17T05:24:48;101046.53;;;1.19;86.08
46291;BME280;32023;44.444;26.006;2023-02-17T05:27:27;101048.88;;;1.22;85.88
46291;BME280;32023;44.444;26.006;2023-02-17T05:29:54;101054.13;;;1.24;85.46
46291;BME280;32023;44.444;26.006;2023-02-17T05:32:43;101047.03;;;1.23;85.31
46291;BME280;32023;44.444;26.006;2023-02-17T05:35:09;101040.56;;;1.24;85.09
46291;BME280;32023;44.444;26.006;2023-02-17T05:37:37;101043.66;;;1.21;84.70
46291;BME280;32023;44.444;26.006;2023-02-17T05:40:07;101043.16;;;1.17;84.82
46291;BME280;32023;44.444;26.006;2023-02-17T05:42:46;101036.53;;;1.20;85.17
46291;BME280;32023;44.444;26.006;2023-02-17T05:45:12;101038.72;;;1.24;85.20
46291;BME280;32023;44.444;26.006;2023-02-17T05:47:38;101042.53;;;1.30;84.92
46291;BME280;32023;44.444;26.006;2023-02-17T05:50:05;101045.19;;;1.38;84.61
46291;BME280;32023;44.444;26.006;2023-02-17T05:52:36;101048.53;;;1.40;84.35
46291;BME280;32023;44.444;26.006;2023-02-17T05:55:02;101054.28;;;1.45;83.96
46291;BME280;32023;44.444;26.006;2023-02-17T05:57:29;101060.38;;;1.47;83.39
46291;BME280;32023;44.444;26.006;2023-02-17T05:59:55;101060.84;;;1.51;83.00
46291;BME280;32023;44.444;26.006;2023-02-17T06:02:22;101071.22;;;1.47;82.80
46291;BME280;32023;44.444;26.006;2023-02-17T06:04:57;101080.03;;;1.49;82.58
46291;BME280;32023;44.444;26.006;2023-02-17T06:07:23;101080.50;;;1.53;82.55
46291;BME280;32023;44.444;26.006;2023-02-17T06:09:50;101084.69;;;1.55;82.43
46291;BME280;32023;44.444;26.006;2023-02-17T06:12:21;101093.53;;;1.57;82.06
46291;BME280;32023;44.444;26.006;2023-02-17T06:18:36;101109.06;;;1.63;81.46
46291;BME280;32023;44.444;26.006;2023-02-17T06:34:06;101104.50;;;2.66;77.98
46291;BME280;32023;44.444;26.006;2023-02-17T06:36:45;101104.78;;;3.07;76.42
46291;BME280;32023;44.444;26.006;2023-02-17T06:45:58;101109.22;;;4.06;71.27
46291;BME280;32023;44.444;26.006;2023-02-17T06:51:57;101129.44;;;4.18;70.22
46291;BME280;32023;44.444;26.006;2023-02-17T07:09:40;101134.66;;;3.64;72.33
46291;BME280;32023;44.444;26.006;2023-02-17T07:12:06;101152.91;;;3.70;72.36
46291;BME280;32023;44.444;26.006;2023-02-17T07:14:45;101141.78;;;3.65;72.14
46291;BME280;32023;44.444;26.006;2023-02-17T07:17:19;101142.38;;;3.61;72.52
46291;BME280;32023;44.444;26.006;2023-02-17T07:19:48;101136.75;;;3.62;72.66
46291;BME280;32023;44.444;26.006;2023-02-17T07:22:14;101141.03;;;3.78;72.46
46291;BME280;32023;44.444;26.006;2023-02-17T07:24:40;101150.09;;;4.06;72.21
46291;BME280;32023;44.444;26.006;2023-02-17T07:27:16;101139.63;;;4.38;71.51
46291;BME280;32023;44.444;26.006;2023-02-17T07:57:10;101107.16;;;7.74;59.57
46291;BME280;32023;44.444;26.006;2023-02-17T08:07:38;101098.88;;;9.15;52.73
46291;BME280;32023;44.444;26.006;2023-02-17T08:16:27;101126.59;;;9.85;49.76
46291;BME280;32023;44.444;26.006;2023-02-17T08:19:32;101131.16;;;9.91;48.87
46291;BME280;32023;44.444;26.006;2023-02-17T08:22:24;101124.97;;;10.07;48.80
46291;BME280;32023;44.444;26.006;2023-02-17T08:28:33;101127.44;;;9.85;49.24
46291;BME280;32023;44.444;26.006;2023-02-17T08:34:22;101138.72;;;10.07;48.19
46291;BME280;32023;44.444;26.006;2023-02-17T08:37:02;101141.41;;;9.84;48.11
46291;BME280;32023;44.444;26.006;2023-02-17T08:42:04;101146.00;;;10.13;48.81
46291;BME280;32023;44.444;26.006;2023-02-17T08:45:07;101152.16;;;10.50;48.27
46291;BME280;32023;44.444;26.006;2023-02-17T08:47:43;101141.72;;;10.87;47.32
46291;BME280;32023;44.444;26.006;2023-02-17T08:53:12;101144.41;;;11.67;46.04
46291;BME280;32023;44.444;26.006;2023-02-17T08:55:48;101146.13;;;12.01;43.64
46291;BME280;32023;44.444;26.006;2023-02-17T08:58:14;101139.19;;;12.48;42.33
46291;BME280;32023;44.444;26.006;2023-02-17T09:00:43;101144.72;;;13.09;41.16
46291;BME280;32023;44.444;26.006;2023-02-17T09:03:17;101136.38;;;13.74;39.78
46291;BME280;32023;44.444;26.006;2023-02-17T09:08:16;101149.63;;;14.30;37.31
46291;BME280;32023;44.444;26.006;2023-02-17T09:13:31;101152.81;;;14.17;38.03
46291;BME280;32023;44.444;26.006;2023-02-17T09:16:07;101143.72;;;14.22;37.42
46291;BME280;32023;44.444;26.006;2023-02-17T09:18:34;101152.91;;;14.27;37.69
46291;BME280;32023;44.444;26.006;2023-02-17T09:21:07;101151.59;;;14.03;38.28
46291;BME280;32023;44.444;26.006;2023-02-17T09:23:36;101167.31;;;13.97;38.70
46291;BME280;32023;44.444;26.006;2023-02-17T09:26:03;101170.59;;;13.94;38.32
46291;BME280;32023;44.444;26.006;2023-02-17T09:28:30;101170.19;;;14.39;38.16
46291;BME280;32023;44.444;26.006;2023-02-17T09:31:06;101170.97;;;14.67;37.49
46291;BME280;32023;44.444;26.006;2023-02-17T09:33:47;101169.50;;;15.01;36.55
46291;BME280;32023;44.444;26.006;2023-02-17T09:36:18;101173.22;;;15.22;36.95
46291;BME280;32023;44.444;26.006;2023-02-17T09:38:45;101172.06;;;16.10;35.56
46291;BME280;32023;44.444;26.006;2023-02-17T09:41:20;101172.06;;;16.51;34.21
46291;BME280;32023;44.444;26.006;2023-02-17T09:44:12;101162.88;;;16.85;33.62
46291;BME280;32023;44.444;26.006;2023-02-17T09:46:40;101162.09;;;16.60;33.63
46291;BME280;32023;44.444;26.006;2023-02-17T09:49:12;101157.34;;;16.80;33.62
46291;BME280;32023;44.444;26.006;2023-02-17T09:55:03;101149.84;;;16.71;33.59
46291;BME280;32023;44.444;26.006;2023-02-17T09:57:55;101143.81;;;17.82;31.50
46291;BME280;32023;44.444;26.006;2023-02-17T10:38:46;101137.06;;;21.45;24.86
46291;BME280;32023;44.444;26.006;2023-02-17T10:41:41;101130.44;;;21.41;25.17
